Shreve, Ohio
Current Conditions -  °F | °C
As of 4:56 AM on Wednesday 26 Nov 2014 (Local Time) from KBJJ Reporting Station
Broken Clouds Broken Clouds  
Wind Chill: 23°   Ceiling: 1900
Heat Index: 28°   Visibility: 10mi
Dew Point: 23°   Wind: 5mph
Humidity: 81%   Direction: 10°N
Pressure: 30.13"   Gusts: NA
Location:  40.68°N, 82.02°W
Report Text: KBJJ 260956Z AUTO 01004KT 10SM BKN019 M02/M05 A3013 RMK AO2 SLP216 T10221050 TSNO
Loading
Personal Weather Stations






























Interactive Weather Map New forecast layout! Learn more

10-Day Weather Forecast

Advertisements
Track Severe Weather on mobile